Time;durP1;ratioP1;P1;durP2;ratioP2;P2;SDS_P1;SDS_P2;PMS_P1;PMS_P2;Temp;Humidity;BMP_temperature;BMP_pressure;BME280_temperature;BME280_humidity;BME280_pressure;Samples;Min_cycle;Max_cycle;Signal;HPM_P1;HPM_P2
2024/01/31 00:01:34;;;;;;;;;39.50;30.25;;;;;-144.24;100.00;114865.94;5078334;27;46288;-69
2024/01/31 00:04:00;;;;;;;;;38.25;32.25;;;;;-144.24;100.00;114865.94;5067120;27;45510;-70
2024/01/31 00:06:25;;;;;;;;;30.25;28.25;;;;;-144.24;100.00;114865.94;5091936;27;57332;-70
2024/01/31 00:08:50;;;;;;;;;36.75;30.50;;;;;-144.24;100.00;114865.94;5086612;27;45537;-71
2024/01/31 00:11:16;;;;;;;;;34.00;27.50;;;;;-144.24;100.00;114865.94;5075108;27;62321;-70
2024/01/31 00:13:41;;;;;;;;;37.75;32.75;;;;;-144.24;100.00;114865.94;5096815;27;45411;-69
2024/01/31 00:16:07;;;;;;;;;36.00;30.75;;;;;-144.24;100.00;114865.94;5077013;27;45534;-70
2024/01/31 00:18:32;;;;;;;;;37.50;32.75;;;;;-144.24;100.00;114865.94;5086798;27;61338;-70
2024/01/31 00:20:58;;;;;;;;;44.00;36.75;;;;;-144.24;100.00;114865.94;5085220;27;59226;-70
2024/01/31 00:23:24;;;;;;;;;42.00;33.00;;;;;-144.24;100.00;114865.94;5078332;27;45558;-71
2024/01/31 00:25:50;;;;;;;;;44.25;38.75;;;;;-144.24;100.00;114865.94;5094509;27;45437;-70
2024/01/31 00:28:16;;;;;;;;;44.50;38.25;;;;;-144.24;100.00;114865.94;5091207;27;45672;-71
2024/01/31 00:30:41;;;;;;;;;51.75;41.50;;;;;-144.24;100.00;114865.94;5086471;27;65725;-70
2024/01/31 00:33:06;;;;;;;;;54.50;43.25;;;;;-144.24;100.00;114865.94;5096382;27;45430;-70
2024/01/31 00:35:32;;;;;;;;;53.75;42.75;;;;;-144.24;100.00;114865.94;5092127;27;45537;-70
2024/01/31 00:37:57;;;;;;;;;57.50;44.75;;;;;-144.24;100.00;114865.94;5091759;27;54743;-70
2024/01/31 00:40:22;;;;;;;;;58.25;46.75;;;;;-144.24;100.00;114865.94;5087348;27;48352;-71
2024/01/31 00:42:48;;;;;;;;;56.75;46.25;;;;;-144.24;100.00;114865.94;5086346;27;45364;-70
2024/01/31 00:45:14;;;;;;;;;61.00;47.75;;;;;-144.24;100.00;114865.94;5092673;27;57796;-70
2024/01/31 00:47:43;;;;;;;;;60.00;49.00;;;;;-144.24;100.00;114865.94;5079838;27;46870;-69
2024/01/31 00:50:10;;;;;;;;;56.75;45.75;;;;;-144.24;100.00;114865.94;5077694;27;47029;-70
2024/01/31 00:52:35;;;;;;;;;53.50;44.50;;;;;-144.24;100.00;114865.94;5081484;27;45421;-70
2024/01/31 00:55:01;;;;;;;;;57.25;44.75;;;;;-144.24;100.00;114865.94;5075082;27;69357;-70
2024/01/31 00:57:26;;;;;;;;;55.75;44.75;;;;;-144.24;100.00;114865.94;5094853;27;49173;-70
2024/01/31 00:59:51;;;;;;;;;54.00;42.50;;;;;-144.24;100.00;114865.94;5086957;27;67805;-70
2024/01/31 01:02:17;;;;;;;;;55.00;42.00;;;;;-144.24;100.00;114865.94;5087235;27;62227;-69
2024/01/31 01:04:43;;;;;;;;;55.50;44.25;;;;;-144.24;100.00;114865.94;5091843;27;67457;-70
2024/01/31 01:07:08;;;;;;;;;59.00;47.00;;;;;-144.24;100.00;114865.94;5094042;27;45390;-70
2024/01/31 01:09:37;;;;;;;;;54.50;40.00;;;;;-144.24;100.00;114865.94;5072093;28;45489;-71
2024/01/31 01:12:02;;;;;;;;;55.00;43.00;;;;;-144.24;100.00;114865.94;5089623;27;58529;-69
2024/01/31 01:14:28;;;;;;;;;51.50;41.25;;;;;-144.24;100.00;114865.94;5091317;27;45472;-70
2024/01/31 01:16:53;;;;;;;;;55.00;44.75;;;;;-144.24;100.00;114865.94;5093791;27;55340;-70
2024/01/31 01:19:18;;;;;;;;;58.50;45.75;;;;;-144.24;100.00;114865.94;5077740;27;63197;-70
2024/01/31 01:21:44;;;;;;;;;51.00;42.50;;;;;-144.24;100.00;114865.94;5072497;28;45399;-70
2024/01/31 01:24:09;;;;;;;;;55.25;43.00;;;;;-144.24;100.00;114865.94;5090183;27;63608;-70
2024/01/31 01:26:40;;;;;;;;;48.75;40.75;;;;;-144.24;100.00;114865.94;5080782;27;45953;-69
2024/01/31 01:29:07;;;;;;;;;54.50;43.00;;;;;-144.24;100.00;114865.94;5073688;28;48578;-70
2024/01/31 01:31:32;;;;;;;;;49.75;39.75;;;;;-144.24;100.00;114865.94;5076412;27;45339;-69
2024/01/31 01:33:59;;;;;;;;;39.75;36.75;;;;;-144.24;100.00;114865.94;5089530;27;62068;-70
2024/01/31 01:36:24;;;;;;;;;36.25;34.00;;;;;-144.24;100.00;114865.94;5098575;27;45596;-71
2024/01/31 01:38:50;;;;;;;;;27.00;21.00;;;;;-144.24;100.00;114865.94;5073428;27;48434;-70
2024/01/31 01:41:15;;;;;;;;;25.50;21.00;;;;;-144.24;100.00;114865.94;5095434;27;63932;-70
2024/01/31 01:43:42;;;;;;;;;16.75;15.25;;;;;-144.24;100.00;114865.94;5093823;27;65886;-70
2024/01/31 01:46:22;;;;;;;;;19.25;18.00;;;;;-144.24;100.00;114865.94;5085690;27;45356;-70
2024/01/31 01:48:49;;;;;;;;;14.75;14.75;;;;;-144.24;100.00;114865.94;5085322;27;46577;-70
2024/01/31 01:51:17;;;;;;;;;15.00;14.00;;;;;-144.24;100.00;114865.94;5095393;27;45473;-70
2024/01/31 01:53:43;;;;;;;;;18.25;14.75;;;;;-144.24;100.00;114865.94;5089239;27;45303;-69
2024/01/31 01:56:09;;;;;;;;;18.75;14.25;;;;;-144.24;100.00;114865.94;5083773;27;45389;-70
2024/01/31 01:58:36;;;;;;;;;19.00;13.00;;;;;-144.24;100.00;114865.94;5094601;27;67976;-70
2024/01/31 02:01:02;;;;;;;;;17.50;14.00;;;;;-144.24;100.00;114865.94;5091367;27;45421;-70
2024/01/31 02:03:30;;;;;;;;;15.75;14.75;;;;;-144.24;100.00;114865.94;5066297;27;45498;-70
2024/01/31 02:05:57;;;;;;;;;16.50;15.00;;;;;-144.24;100.00;114865.94;5088681;27;48778;-70
2024/01/31 02:08:23;;;;;;;;;11.75;11.50;;;;;-144.24;100.00;114865.94;5075696;27;46660;-70
2024/01/31 02:10:48;;;;;;;;;13.00;13.00;;;;;-144.24;100.00;114865.94;5094378;27;66051;-70
2024/01/31 02:13:13;;;;;;;;;12.75;11.75;;;;;-144.24;100.00;114865.94;5092777;27;51494;-70
2024/01/31 02:15:38;;;;;;;;;13.00;12.50;;;;;-144.24;100.00;114865.94;5089643;27;60302;-70
2024/01/31 02:18:04;;;;;;;;;16.00;15.00;;;;;-144.24;100.00;114865.94;5075183;27;46670;-70
2024/01/31 02:20:29;;;;;;;;;12.25;12.00;;;;;-144.24;100.00;114865.94;5088248;27;45479;-70
2024/01/31 02:22:55;;;;;;;;;19.25;12.25;;;;;-144.24;100.00;114865.94;5070594;27;63257;-70
2024/01/31 02:25:21;;;;;;;;;13.50;12.00;;;;;-144.24;100.00;114865.94;5075689;28;45439;-69
2024/01/31 02:27:46;;;;;;;;;16.25;13.75;;;;;-144.24;100.00;114865.94;5064334;27;46023;-71
2024/01/31 02:30:12;;;;;;;;;15.25;12.00;;;;;-144.24;100.00;114865.94;5096354;27;45532;-70
2024/01/31 02:32:37;;;;;;;;;14.00;12.75;;;;;-144.24;100.00;114865.94;5094021;27;45429;-70
2024/01/31 02:35:03;;;;;;;;;15.50;13.75;;;;;-144.24;100.00;114865.94;5095217;27;45476;-71
2024/01/31 02:37:29;;;;;;;;;19.50;12.75;;;;;-144.24;100.00;114865.94;5089838;27;45742;-71
2024/01/31 02:39:55;;;;;;;;;9.50;9.50;;;;;-144.24;100.00;114865.94;5094880;27;64149;-70
2024/01/31 02:42:20;;;;;;;;;12.75;12.75;;;;;-144.24;100.00;114865.94;5093656;27;53291;-70
2024/01/31 02:44:45;;;;;;;;;13.50;11.00;;;;;-144.24;100.00;114865.94;5087407;27;62785;-70
2024/01/31 02:47:10;;;;;;;;;11.00;9.00;;;;;-144.24;100.00;114865.94;5074626;27;59867;-70
2024/01/31 02:49:36;;;;;;;;;13.50;11.50;;;;;-144.24;100.00;114865.94;5076875;27;65774;-70
2024/01/31 02:52:01;;;;;;;;;13.00;12.50;;;;;-144.24;100.00;114865.94;5097230;27;63133;-70
2024/01/31 02:54:26;;;;;;;;;13.25;12.00;;;;;-144.24;100.00;114865.94;5091966;27;45733;-71
2024/01/31 02:56:52;;;;;;;;;14.25;11.75;;;;;-144.24;100.00;114865.94;5092707;27;68181;-70
2024/01/31 02:59:19;;;;;;;;;14.50;13.00;;;;;-144.24;100.00;114865.94;5069998;27;45481;-70
2024/01/31 03:01:45;;;;;;;;;12.75;11.50;;;;;-144.24;100.00;114865.94;5094388;27;45509;-70
2024/01/31 03:04:11;;;;;;;;;12.00;12.00;;;;;-144.24;100.00;114865.94;5068467;28;45440;-69
2024/01/31 03:06:36;;;;;;;;;14.00;11.00;;;;;-144.24;100.00;114865.94;5077114;27;46896;-70
2024/01/31 03:09:02;;;;;;;;;13.00;11.50;;;;;-144.24;100.00;114865.94;5088289;27;64216;-70
2024/01/31 03:11:27;;;;;;;;;7.00;7.00;;;;;-144.24;100.00;114865.94;5091716;27;45305;-70
2024/01/31 03:13:53;;;;;;;;;13.50;12.25;;;;;-144.24;100.00;114865.94;5089514;27;58285;-70
2024/01/31 03:16:18;;;;;;;;;13.25;11.75;;;;;-144.24;100.00;114865.94;5091479;27;46258;-70
2024/01/31 03:18:43;;;;;;;;;15.25;12.00;;;;;-144.24;100.00;114865.94;5073865;27;65744;-70
2024/01/31 03:21:09;;;;;;;;;6.50;4.25;;;;;-144.24;100.00;114865.94;5090079;27;45294;-70
2024/01/31 03:23:34;;;;;;;;;18.25;13.25;;;;;-144.24;100.00;114865.94;5095135;27;55411;-70
2024/01/31 03:25:59;;;;;;;;;10.00;7.75;;;;;-144.24;100.00;114865.94;5092687;27;65354;-70
2024/01/31 03:28:25;;;;;;;;;16.50;12.25;;;;;-144.24;100.00;114865.94;5069671;28;45263;-70
2024/01/31 03:30:50;;;;;;;;;14.00;11.25;;;;;-144.24;100.00;114865.94;5076444;27;45499;-70
2024/01/31 03:33:15;;;;;;;;;14.50;14.50;;;;;-144.24;100.00;114865.94;5082964;27;54749;-70
2024/01/31 03:35:41;;;;;;;;;14.50;13.50;;;;;-144.24;100.00;114865.94;5092534;27;62626;-70
2024/01/31 03:38:08;;;;;;;;;12.75;12.75;;;;;-144.24;100.00;114865.94;5095394;27;50662;-70
2024/01/31 03:40:33;;;;;;;;;15.50;12.50;;;;;-144.24;100.00;114865.94;5093165;27;45337;-70
2024/01/31 03:42:59;;;;;;;;;16.25;13.00;;;;;-144.24;100.00;114865.94;5093775;27;45216;-70
2024/01/31 03:45:25;;;;;;;;;20.50;17.75;;;;;-144.24;100.00;114865.94;5086928;27;66382;-70
2024/01/31 03:47:51;;;;;;;;;21.00;14.00;;;;;-144.24;100.00;114865.94;5075322;27;45506;-70
2024/01/31 03:50:17;;;;;;;;;16.00;15.00;;;;;-144.24;100.00;114865.94;5090744;27;45457;-70
2024/01/31 03:52:42;;;;;;;;;22.25;17.50;;;;;-144.24;100.00;114865.94;5068766;27;45615;-69
2024/01/31 03:55:09;;;;;;;;;17.00;15.50;;;;;-144.24;100.00;114865.94;5074855;27;54392;-70
2024/01/31 03:57:34;;;;;;;;;18.00;14.50;;;;;-144.24;100.00;114865.94;5089028;27;45556;-70
2024/01/31 04:00:05;;;;;;;;;16.00;15.00;;;;;-144.24;100.00;114865.94;5074211;27;45366;-70
2024/01/31 04:02:30;;;;;;;;;23.00;19.75;;;;;-144.24;100.00;114865.94;5086672;27;45497;-70
2024/01/31 04:04:55;;;;;;;;;18.25;15.75;;;;;-144.24;100.00;114865.94;5070208;27;72546;-70
2024/01/31 04:07:20;;;;;;;;;18.50;17.75;;;;;-144.24;100.00;114865.94;5088347;27;57411;-70
2024/01/31 04:09:46;;;;;;;;;20.00;17.50;;;;;-144.24;100.00;114865.94;5094577;27;58034;-70
2024/01/31 04:12:11;;;;;;;;;16.75;14.00;;;;;-144.24;100.00;114865.94;5095609;27;45261;-70
2024/01/31 04:14:36;;;;;;;;;15.00;15.00;;;;;-144.24;100.00;114865.94;5075183;27;66842;-70
2024/01/31 04:17:02;;;;;;;;;23.25;17.25;;;;;-144.24;100.00;114865.94;5092122;27;66806;-70
2024/01/31 04:19:27;;;;;;;;;25.00;21.00;;;;;-144.24;100.00;114865.94;5088393;27;45277;-70
2024/01/31 04:21:53;;;;;;;;;22.50;20.75;;;;;-144.24;100.00;114865.94;5092894;27;56681;-70
2024/01/31 04:24:18;;;;;;;;;16.50;16.50;;;;;-144.24;100.00;114865.94;5086932;27;46413;-69
2024/01/31 04:26:44;;;;;;;;;24.75;19.00;;;;;-144.24;100.00;114865.94;5089979;27;67482;-70
2024/01/31 04:29:09;;;;;;;;;20.25;17.25;;;;;-144.24;100.00;114865.94;5072868;27;45482;-71
2024/01/31 04:31:35;;;;;;;;;19.25;17.75;;;;;-144.24;100.00;114865.94;5088672;27;61617;-70
2024/01/31 04:34:04;;;;;;;;;19.75;17.50;;;;;-144.24;100.00;114865.94;5089292;27;46515;-70
2024/01/31 04:36:30;;;;;;;;;24.00;18.50;;;;;-144.24;100.00;114865.94;5068238;27;45493;-70
2024/01/31 04:38:55;;;;;;;;;19.00;16.25;;;;;-144.24;100.00;114865.94;5073637;27;45528;-70
2024/01/31 04:41:20;;;;;;;;;22.75;20.50;;;;;-144.24;100.00;114865.94;5083430;27;59331;-70
2024/01/31 04:43:46;;;;;;;;;17.50;14.25;;;;;-144.24;100.00;114865.94;5089034;27;69399;-71
2024/01/31 04:46:14;;;;;;;;;18.75;15.25;;;;;-144.24;100.00;114865.94;5074608;27;70940;-70
2024/01/31 04:48:40;;;;;;;;;18.25;15.75;;;;;-144.24;100.00;114865.94;5095162;27;45597;-69
2024/01/31 04:51:05;;;;;;;;;23.25;19.50;;;;;-144.24;100.00;114865.94;5086986;27;56142;-70
2024/01/31 04:53:31;;;;;;;;;19.00;14.75;;;;;-144.24;100.00;114865.94;5098101;27;62910;-70
2024/01/31 04:55:56;;;;;;;;;19.00;16.00;;;;;-144.24;100.00;114865.94;5089601;27;45364;-70
2024/01/31 04:58:22;;;;;;;;;17.75;15.25;;;;;-144.24;100.00;114865.94;5069453;28;45783;-70
2024/01/31 05:00:47;;;;;;;;;13.25;13.00;;;;;-144.24;100.00;114865.94;5087378;27;61505;-70
2024/01/31 05:03:13;;;;;;;;;15.25;11.25;;;;;-144.24;100.00;114865.94;5094983;27;45817;-70
2024/01/31 05:05:38;;;;;;;;;12.75;12.75;;;;;-144.24;100.00;114865.94;5090419;27;45434;-70
2024/01/31 05:08:06;;;;;;;;;13.00;12.75;;;;;-144.24;100.00;114865.94;5098323;27;48524;-70
2024/01/31 05:10:34;;;;;;;;;14.50;13.00;;;;;-144.24;100.00;114865.94;5087694;27;45639;-70
2024/01/31 05:13:00;;;;;;;;;13.50;12.00;;;;;-144.24;100.00;114865.94;5094196;27;46588;-70
2024/01/31 05:15:25;;;;;;;;;14.00;9.75;;;;;-144.24;100.00;114865.94;5084588;27;45427;-70
2024/01/31 05:17:50;;;;;;;;;9.50;8.50;;;;;-144.24;100.00;114865.94;5077654;27;45500;-70
2024/01/31 05:20:16;;;;;;;;;8.00;8.00;;;;;-144.24;100.00;114865.94;5076204;27;56073;-70
2024/01/31 05:22:42;;;;;;;;;9.00;9.00;;;;;-144.24;100.00;114865.94;5076583;27;47218;-70
2024/01/31 05:25:07;;;;;;;;;13.25;10.00;;;;;-144.24;100.00;114865.94;5057540;27;45390;-70
2024/01/31 05:27:33;;;;;;;;;12.75;9.25;;;;;-144.24;100.00;114865.94;5089140;27;45563;-71
2024/01/31 05:29:59;;;;;;;;;10.50;8.00;;;;;-144.24;100.00;114865.94;5098488;27;45531;-70
2024/01/31 05:32:24;;;;;;;;;9.50;7.00;;;;;-144.24;100.00;114865.94;5079369;27;45488;-70
2024/01/31 05:34:49;;;;;;;;;9.00;6.00;;;;;-144.24;100.00;114865.94;5089700;27;55100;-70
2024/01/31 05:37:15;;;;;;;;;13.50;9.00;;;;;-144.24;100.00;114865.94;5095149;27;45343;-70
2024/01/31 05:39:40;;;;;;;;;7.25;7.00;;;;;-144.24;100.00;114865.94;5078026;27;63427;-70
2024/01/31 05:42:05;;;;;;;;;8.00;8.00;;;;;-144.24;100.00;114865.94;5082550;27;69519;-70
2024/01/31 05:44:31;;;;;;;;;5.00;5.00;;;;;-144.24;100.00;114865.94;5095921;27;53561;-70
2024/01/31 05:46:56;;;;;;;;;12.00;8.00;;;;;-144.24;100.00;114865.94;5094557;27;63662;-71
2024/01/31 05:49:21;;;;;;;;;13.00;8.00;;;;;-144.24;100.00;114865.94;5076832;27;45597;-70
2024/01/31 05:51:47;;;;;;;;;10.00;7.67;;;;;-144.24;100.00;114865.94;5095913;27;66673;-70
2024/01/31 05:54:12;;;;;;;;;5.50;5.50;;;;;-144.24;100.00;114865.94;5091751;27;45353;-70
2024/01/31 05:56:38;;;;;;;;;8.50;6.75;;;;;-144.24;100.00;114865.94;5092078;27;45398;-71
2024/01/31 05:59:03;;;;;;;;;4.00;4.00;;;;;-144.24;100.00;114865.94;5096009;27;45271;-69
2024/01/31 06:01:29;;;;;;;;;7.50;6.25;;;;;-144.24;100.00;114865.94;5089375;27;46046;-70
2024/01/31 06:03:54;;;;;;;;;6.00;6.00;;;;;-144.24;100.00;114865.94;5084837;27;60146;-70
2024/01/31 06:06:19;;;;;;;;;7.25;7.25;;;;;-144.24;100.00;114865.94;5089104;27;63573;-70
2024/01/31 06:08:45;;;;;;;;;8.00;4.75;;;;;-144.24;100.00;114865.94;5094114;27;62871;-70
2024/01/31 06:11:10;;;;;;;;;7.75;7.00;;;;;-144.24;100.00;114865.94;5093312;27;58411;-72
2024/01/31 06:13:36;;;;;;;;;7.50;6.00;;;;;-144.24;100.00;114865.94;5074947;27;45532;-71
2024/01/31 06:16:02;;;;;;;;;8.00;6.00;;;;;-144.24;100.00;114865.94;5090661;27;45605;-71
2024/01/31 06:18:29;;;;;;;;;10.75;7.00;;;;;-144.24;100.00;114865.94;5085592;27;45485;-70
2024/01/31 06:20:54;;;;;;;;;5.33;5.33;;;;;-144.24;100.00;114865.94;5088879;27;45996;-71
2024/01/31 06:23:19;;;;;;;;;5.25;5.25;;;;;-144.24;100.00;114865.94;5090227;27;64793;-72
2024/01/31 06:25:45;;;;;;;;;6.50;6.00;;;;;-144.24;100.00;114865.94;5086174;27;45829;-70
2024/01/31 06:28:10;;;;;;;;;7.00;7.00;;;;;-144.24;100.00;114865.94;5077049;28;45527;-69
2024/01/31 06:30:44;;;;;;;;;7.00;7.00;;;;;-144.24;100.00;114865.94;5084518;27;66295;-70
2024/01/31 06:35:47;;;;;;;;;6.00;6.00;;;;;-144.24;100.00;114865.94;5077928;22;45828;-70
2024/01/31 06:38:13;;;;;;;;;5.50;5.50;;;;;-144.24;100.00;114865.94;5027437;28;45467;-70
2024/01/31 06:40:38;;;;;;;;;7.33;7.00;;;;;-144.24;100.00;114865.94;5011796;28;45808;-70
2024/01/31 06:43:03;;;;;;;;;9.25;8.00;;;;;-144.24;100.00;114865.94;5031316;28;65340;-70
2024/01/31 06:45:29;;;;;;;;;8.25;6.00;;;;;-144.24;100.00;114865.94;5015760;28;45411;-70
2024/01/31 06:47:54;;;;;;;;;8.25;6.00;;;;;-144.24;100.00;114865.94;5031303;28;59582;-69
2024/01/31 06:50:20;;;;;;;;;10.00;6.75;;;;;-144.24;100.00;114865.94;5033416;28;45637;-69
2024/01/31 06:52:46;;;;;;;;;7.25;6.00;;;;;-144.24;100.00;114865.94;5031682;28;45535;-71
2024/01/31 06:55:12;;;;;;;;;11.00;7.00;;;;;-144.24;100.00;114865.94;5015299;28;45438;-71
2024/01/31 06:57:38;;;;;;;;;7.50;6.50;;;;;-144.24;100.00;114865.94;5036886;28;45585;-72
2024/01/31 07:00:06;;;;;;;;;5.75;5.75;;;;;-144.24;100.00;114865.94;5028521;28;45897;-72
2024/01/31 07:02:31;;;;;;;;;6.50;6.25;;;;;-144.24;100.00;114865.94;5038168;28;45590;-71
2024/01/31 07:04:56;;;;;;;;;7.00;7.00;;;;;-144.24;100.00;114865.94;5042740;28;65767;-70
2024/01/31 07:07:22;;;;;;;;;11.50;8.00;;;;;-144.24;100.00;114865.94;5037863;28;64542;-69
2024/01/31 07:09:47;;;;;;;;;9.00;6.00;;;;;-144.24;100.00;114865.94;5026323;28;45911;-73
2024/01/31 07:12:12;;;;;;;;;14.50;8.75;;;;;-144.24;100.00;114865.94;5034647;28;67109;-73
2024/01/31 07:14:40;;;;;;;;;14.50;11.25;;;;;-144.24;100.00;114865.94;5015221;28;65669;-73
2024/01/31 07:17:06;;;;;;;;;12.50;11.75;;;;;-144.24;100.00;114865.94;5012140;28;45686;-72
2024/01/31 07:19:32;;;;;;;;;12.00;11.00;;;;;-144.24;100.00;114865.94;5040310;28;66262;-72
2024/01/31 07:21:57;;;;;;;;;12.00;11.50;;;;;-144.24;100.00;114865.94;5036695;28;45431;-72
2024/01/31 07:24:23;;;;;;;;;13.25;13.25;;;;;-144.24;100.00;114865.94;5023509;28;45337;-72
2024/01/31 07:26:48;;;;;;;;;15.50;15.50;;;;;-144.24;100.00;114865.94;5033685;28;45446;-71
2024/01/31 07:29:14;;;;;;;;;20.50;18.25;;;;;-144.24;100.00;114865.94;5035484;28;61545;-73
2024/01/31 07:31:40;;;;;;;;;17.25;12.50;;;;;-144.24;100.00;114865.94;5033760;28;45531;-71
2024/01/31 07:34:05;;;;;;;;;11.75;11.75;;;;;-144.24;100.00;114865.94;5006893;28;45563;-70
2024/01/31 07:36:30;;;;;;;;;11.00;9.00;;;;;-144.24;100.00;114865.94;5026716;28;51116;-68
2024/01/31 07:38:56;;;;;;;;;16.00;16.00;;;;;-144.24;100.00;114865.94;5034829;28;46501;-68
2024/01/31 07:41:21;;;;;;;;;15.50;12.75;;;;;-144.24;100.00;114865.94;5015138;28;60845;-70
2024/01/31 07:43:46;;;;;;;;;15.25;14.00;;;;;-144.24;100.00;114865.94;5035033;28;45875;-70
2024/01/31 07:46:12;;;;;;;;;12.25;11.75;;;;;-144.24;100.00;114865.94;5030389;28;55598;-67
2024/01/31 07:48:37;;;;;;;;;11.75;11.75;;;;;-144.24;100.00;114865.94;5027904;28;46409;-70
2024/01/31 07:51:04;;;;;;;;;15.25;15.25;;;;;-144.24;100.00;114865.94;5028300;28;47819;-72
2024/01/31 07:53:30;;;;;;;;;17.00;15.75;;;;;-144.24;100.00;114865.94;5013296;28;45437;-70
2024/01/31 07:55:55;;;;;;;;;17.25;14.50;;;;;-144.24;100.00;114865.94;5012383;28;45491;-70
2024/01/31 07:58:21;;;;;;;;;17.25;14.00;;;;;-144.24;100.00;114865.94;5029998;28;46642;-70
2024/01/31 08:00:46;;;;;;;;;15.50;12.25;;;;;-144.24;100.00;114865.94;5017950;28;45460;-71
2024/01/31 08:03:12;;;;;;;;;17.00;14.00;;;;;-144.24;100.00;114865.94;5033319;28;45351;-70
2024/01/31 08:05:37;;;;;;;;;30.50;26.00;;;;;-144.24;100.00;114865.94;5030675;28;45858;-70
2024/01/31 08:08:03;;;;;;;;;30.00;23.75;;;;;-144.24;100.00;114865.94;5028470;28;46080;-71
2024/01/31 08:10:28;;;;;;;;;22.75;21.75;;;;;-144.24;100.00;114865.94;5031532;28;45643;-70
2024/01/31 08:12:53;;;;;;;;;17.75;17.75;;;;;-144.24;100.00;114865.94;5033971;28;51857;-70
2024/01/31 08:15:19;;;;;;;;;22.25;16.50;;;;;-144.24;100.00;114865.94;5026982;28;46340;-69
2024/01/31 08:17:45;;;;;;;;;15.25;15.25;;;;;-144.24;100.00;114865.94;5030614;28;47810;-70
2024/01/31 08:20:11;;;;;;;;;22.50;18.00;;;;;-144.24;100.00;114865.94;5037971;28;45493;-73
2024/01/31 08:22:36;;;;;;;;;19.00;16.75;;;;;-144.24;100.00;114865.94;5030221;28;45599;-71
2024/01/31 08:25:01;;;;;;;;;17.50;16.25;;;;;-144.24;100.00;114865.94;5018666;28;45511;-72
2024/01/31 08:27:27;;;;;;;;;20.25;14.00;;;;;-144.24;100.00;114865.94;5024571;28;46652;-71
2024/01/31 08:29:52;;;;;;;;;20.75;16.00;;;;;-144.24;100.00;114865.94;5030199;28;62341;-70
2024/01/31 08:32:18;;;;;;;;;14.75;14.00;;;;;-144.24;100.00;114865.94;5010964;28;45932;-71
2024/01/31 08:34:43;;;;;;;;;18.00;13.75;;;;;-144.24;100.00;114865.94;5032794;28;45331;-70
2024/01/31 08:37:09;;;;;;;;;6.25;1.75;;;;;-144.24;100.00;114865.94;5027688;28;45893;-71
2024/01/31 08:39:34;;;;;;;;;21.75;18.00;;;;;-144.24;100.00;114865.94;5030099;28;45686;-71
2024/01/31 08:42:00;;;;;;;;;16.75;16.00;;;;;-144.24;100.00;114865.94;5013003;28;45508;-71
2024/01/31 08:44:25;;;;;;;;;21.75;18.00;;;;;-144.24;100.00;114865.94;4995813;28;57684;-71
2024/01/31 08:46:51;;;;;;;;;20.00;16.00;;;;;-144.24;100.00;114865.94;5031501;28;65750;-71
2024/01/31 08:49:17;;;;;;;;;19.00;15.00;;;;;-144.24;100.00;114865.94;5030996;28;45475;-71
2024/01/31 08:51:42;;;;;;;;;18.00;13.00;;;;;-144.24;100.00;114865.94;5032242;28;45650;-71
2024/01/31 08:54:07;;;;;;;;;26.00;17.00;;;;;-144.24;100.00;114865.94;5012305;28;55114;-71
2024/01/31 08:56:33;;;;;;;;;19.50;17.50;;;;;-144.24;100.00;114865.94;5033049;28;45931;-71
2024/01/31 08:58:59;;;;;;;;;22.25;18.50;;;;;-144.24;100.00;114865.94;5030991;28;45561;-69
2024/01/31 09:01:25;;;;;;;;;19.50;17.00;;;;;-144.24;100.00;114865.94;5031743;28;46322;-69
2024/01/31 09:03:51;;;;;;;;;19.25;15.50;;;;;-144.24;100.00;114865.94;5013746;28;45856;-70
2024/01/31 09:06:16;;;;;;;;;22.00;16.75;;;;;-144.24;100.00;114865.94;5031001;28;46760;-69
2024/01/31 09:08:42;;;;;;;;;20.25;17.25;;;;;-144.24;100.00;114865.94;5011678;28;45499;-71
2024/01/31 09:11:07;;;;;;;;;24.75;21.75;;;;;-144.24;100.00;114865.94;5009834;28;45555;-70
2024/01/31 09:13:33;;;;;;;;;23.50;19.25;;;;;-144.24;100.00;114865.94;5030552;28;45454;-69
2024/01/31 09:15:58;;;;;;;;;21.50;15.75;;;;;-144.24;100.00;114865.94;5029524;28;46557;-70
2024/01/31 09:18:24;;;;;;;;;15.75;11.50;;;;;-144.24;100.00;114865.94;5030964;28;60655;-70
2024/01/31 09:20:49;;;;;;;;;13.00;12.00;;;;;-144.24;100.00;114865.94;5033563;28;45440;-70
2024/01/31 09:23:15;;;;;;;;;8.75;8.75;;;;;-144.24;100.00;114865.94;5031687;28;45492;-69
2024/01/31 09:25:40;;;;;;;;;10.25;9.00;;;;;-144.24;100.00;114865.94;5030363;28;46574;-71
2024/01/31 09:28:05;;;;;;;;;9.75;7.25;;;;;-144.24;100.00;114865.94;5029817;28;45438;-69
2024/01/31 09:30:31;;;;;;;;;9.00;6.25;;;;;-144.24;100.00;114865.94;5012934;28;53864;-71
2024/01/31 09:32:56;;;;;;;;;3.75;2.75;;;;;-144.24;100.00;114865.94;5031101;28;45611;-70
2024/01/31 09:35:21;;;;;;;;;9.00;7.33;;;;;-144.24;100.00;114865.94;5028786;28;45766;-69
2024/01/31 09:37:47;;;;;;;;;9.00;8.00;;;;;-144.24;100.00;114865.94;5030086;28;51273;-70
2024/01/31 09:40:15;;;;;;;;;10.00;8.00;;;;;-144.24;100.00;114865.94;5015672;28;45590;-71
2024/01/31 09:42:43;;;;;;;;;9.33;6.33;;;;;-144.24;100.00;114865.94;5035464;28;47126;-70
2024/01/31 09:45:13;;;;;;;;;8.33;7.00;;;;;-144.24;100.00;114865.94;5035618;28;46010;-70
2024/01/31 09:47:40;;;;;;;;;12.75;8.50;;;;;-144.24;100.00;114865.94;5013822;28;51375;-69
2024/01/31 09:50:07;;;;;;;;;10.00;8.00;;;;;-144.24;100.00;114865.94;5036456;28;45517;-71
2024/01/31 09:52:35;;;;;;;;;10.00;10.00;;;;;-144.24;100.00;114865.94;5030419;28;46101;-70
2024/01/31 09:55:01;;;;;;;;;9.00;8.00;;;;;-144.24;100.00;114865.94;5036717;28;46794;-72
2024/01/31 09:57:27;;;;;;;;;10.00;9.00;;;;;-144.24;100.00;114865.94;5035478;28;45419;-72
2024/01/31 09:59:55;;;;;;;;;10.00;7.67;;;;;-144.24;100.00;114865.94;5032614;28;45542;-71
2024/01/31 10:02:21;;;;;;;;;11.33;11.00;;;;;-144.24;100.00;114865.94;5020548;28;45628;-70
2024/01/31 10:04:48;;;;;;;;;10.00;10.00;;;;;-144.24;100.00;114865.94;5016463;28;45688;-70
2024/01/31 10:07:28;;;;;;;;;12.33;10.33;;;;;-144.24;100.00;114865.94;5035999;28;45359;-70
2024/01/31 10:09:54;;;;;;;;;9.67;9.67;;;;;-144.24;100.00;114865.94;5036609;28;45578;-70
2024/01/31 10:12:20;;;;;;;;;15.00;11.00;;;;;-144.24;100.00;114865.94;5017427;28;45707;-70
2024/01/31 10:14:51;;;;;;;;;10.67;9.33;;;;;-144.24;100.00;114865.94;5034960;28;45671;-69
2024/01/31 10:17:20;;;;;;;;;10.33;8.00;;;;;-144.24;100.00;114865.94;5034558;28;45520;-69
2024/01/31 10:19:45;;;;;;;;;15.33;11.33;;;;;-144.24;100.00;114865.94;5039887;28;45517;-69
2024/01/31 10:22:11;;;;;;;;;15.33;11.00;;;;;-144.24;100.00;114865.94;5035433;28;45481;-69
2024/01/31 10:24:38;;;;;;;;;12.33;10.33;;;;;-144.24;100.00;114865.94;5041561;28;46401;-70
2024/01/31 10:27:06;;;;;;;;;10.00;10.00;;;;;-144.24;100.00;114865.94;5032278;28;45336;-70
2024/01/31 10:29:32;;;;;;;;;13.00;11.00;;;;;-144.24;100.00;114865.94;5035146;28;45617;-70
2024/01/31 10:31:57;;;;;;;;;10.67;9.67;;;;;-144.24;100.00;114865.94;5030672;28;45574;-70
2024/01/31 10:34:23;;;;;;;;;15.00;10.33;;;;;-144.24;100.00;114865.94;5033867;28;61311;-71
2024/01/31 10:36:49;;;;;;;;;13.33;10.33;;;;;-144.24;100.00;114865.94;5011046;28;62612;-70
2024/01/31 10:39:16;;;;;;;;;14.00;9.00;;;;;-144.24;100.00;114865.94;5016406;28;58351;-70
2024/01/31 10:41:42;;;;;;;;;15.75;12.25;;;;;-144.24;100.00;114865.94;5017451;28;45194;-70
2024/01/31 10:44:11;;;;;;;;;12.00;10.00;;;;;-144.24;100.00;114865.94;5015050;28;46525;-70
2024/01/31 10:46:39;;;;;;;;;12.33;12.33;;;;;-144.24;100.00;114865.94;5028705;28;45687;-69